sensor_id;sensor_type;location;lat;lon;timestamp;temperature;humidity
23207;DHT22;11773;52.570;13.052;2023-01-16T00:00:18;6.50;99.90
23207;DHT22;11773;52.570;13.052;2023-01-16T00:02:48;6.50;99.90
23207;DHT22;11773;52.570;13.052;2023-01-16T00:05:18;6.60;99.90
23207;DHT22;11773;52.570;13.052;2023-01-16T00:07:47;6.60;99.90
23207;DHT22;11773;52.570;13.052;2023-01-16T00:10:17;6.60;99.90
23207;DHT22;11773;52.570;13.052;2023-01-16T00:12:49;6.60;99.90
23207;DHT22;11773;52.570;13.052;2023-01-16T00:15:18;6.60;99.90
23207;DHT22;11773;52.570;13.052;2023-01-16T00:17:48;6.50;99.90
23207;DHT22;11773;52.570;13.052;2023-01-16T00:20:18;6.70;99.90
23207;DHT22;11773;52.570;13.052;2023-01-16T00:22:47;6.70;99.90
23207;DHT22;11773;52.570;13.052;2023-01-16T00:25:17;6.70;99.90
23207;DHT22;11773;52.570;13.052;2023-01-16T00:27:47;6.70;99.90
23207;DHT22;11773;52.570;13.052;2023-01-16T00:30:16;6.60;99.90
23207;DHT22;11773;52.570;13.052;2023-01-16T00:32:47;6.50;99.90
23207;DHT22;11773;52.570;13.052;2023-01-16T00:35:16;6.60;99.90
23207;DHT22;11773;52.570;13.052;2023-01-16T00:37:46;6.60;99.90
23207;DHT22;11773;52.570;13.052;2023-01-16T00:40:15;6.60;99.90
23207;DHT22;11773;52.570;13.052;2023-01-16T00:42:45;6.60;99.90
23207;DHT22;11773;52.570;13.052;2023-01-16T00:45:15;6.60;99.90
23207;DHT22;11773;52.570;13.052;2023-01-16T00:47:45;6.60;99.90
23207;DHT22;11773;52.570;13.052;2023-01-16T00:50:14;6.50;99.90
23207;DHT22;11773;52.570;13.052;2023-01-16T00:52:44;6.50;99.90
23207;DHT22;11773;52.570;13.052;2023-01-16T00:55:13;6.60;99.90
23207;DHT22;11773;52.570;13.052;2023-01-16T00:57:43;6.50;99.90
23207;DHT22;11773;52.570;13.052;2023-01-16T01:00:12;6.50;99.90
23207;DHT22;11773;52.570;13.052;2023-01-16T01:02:43;6.40;99.90
23207;DHT22;11773;52.570;13.052;2023-01-16T01:05:12;6.40;99.90
23207;DHT22;11773;52.570;13.052;2023-01-16T01:07:41;6.30;99.90
23207;DHT22;11773;52.570;13.052;2023-01-16T01:10:11;6.40;99.90
23207;DHT22;11773;52.570;13.052;2023-01-16T01:12:41;6.30;99.90
23207;DHT22;11773;52.570;13.052;2023-01-16T01:15:10;6.20;99.90
23207;DHT22;11773;52.570;13.052;2023-01-16T01:17:40;6.30;99.90
23207;DHT22;11773;52.570;13.052;2023-01-16T01:20:10;6.30;99.90
23207;DHT22;11773;52.570;13.052;2023-01-16T01:22:40;6.20;99.90
23207;DHT22;11773;52.570;13.052;2023-01-16T01:25:09;6.20;99.90
23207;DHT22;11773;52.570;13.052;2023-01-16T01:27:39;6.10;99.90
23207;DHT22;11773;52.570;13.052;2023-01-16T01:30:09;6.30;99.90
23207;DHT22;11773;52.570;13.052;2023-01-16T01:32:39;6.30;99.90
23207;DHT22;11773;52.570;13.052;2023-01-16T01:35:09;6.40;99.90
23207;DHT22;11773;52.570;13.052;2023-01-16T01:37:38;6.30;99.90
23207;DHT22;11773;52.570;13.052;2023-01-16T01:40:09;6.20;99.90
23207;DHT22;11773;52.570;13.052;2023-01-16T01:42:40;6.20;99.90
23207;DHT22;11773;52.570;13.052;2023-01-16T01:45:17;6.20;99.90
23207;DHT22;11773;52.570;13.052;2023-01-16T01:50:49;6.20;99.90
23207;DHT22;11773;52.570;13.052;2023-01-16T01:53:30;6.20;99.90
23207;DHT22;11773;52.570;13.052;2023-01-16T01:56:08;6.30;99.90
23207;DHT22;11773;52.570;13.052;2023-01-16T01:58:43;6.20;99.90
23207;DHT22;11773;52.570;13.052;2023-01-16T02:01:16;6.20;99.90
23207;DHT22;11773;52.570;13.052;2023-01-16T02:03:55;6.30;99.90
23207;DHT22;11773;52.570;13.052;2023-01-16T02:06:32;6.40;99.90
23207;DHT22;11773;52.570;13.052;2023-01-16T02:09:03;6.30;99.90
23207;DHT22;11773;52.570;13.052;2023-01-16T02:11:43;6.30;99.90
23207;DHT22;11773;52.570;13.052;2023-01-16T02:14:25;6.10;99.90
23207;DHT22;11773;52.570;13.052;2023-01-16T02:17:05;6.00;99.90
23207;DHT22;11773;52.570;13.052;2023-01-16T02:20:23;6.10;99.90
23207;DHT22;11773;52.570;13.052;2023-01-16T02:23:03;6.20;99.90
23207;DHT22;11773;52.570;13.052;2023-01-16T02:25:59;6.20;99.90
23207;DHT22;11773;52.570;13.052;2023-01-16T02:31:41;6.00;99.90
23207;DHT22;11773;52.570;13.052;2023-01-16T02:42:58;6.20;99.90
23207;DHT22;11773;52.570;13.052;2023-01-16T02:45:42;6.20;99.90
23207;DHT22;11773;52.570;13.052;2023-01-16T02:48:49;6.20;99.90
23207;DHT22;11773;52.570;13.052;2023-01-16T02:54:10;6.10;99.90
23207;DHT22;11773;52.570;13.052;2023-01-16T02:59:43;6.00;99.90
23207;DHT22;11773;52.570;13.052;2023-01-16T03:02:13;6.20;99.90
23207;DHT22;11773;52.570;13.052;2023-01-16T03:04:46;6.10;99.90
23207;DHT22;11773;52.570;13.052;2023-01-16T03:17:16;6.10;99.90
23207;DHT22;11773;52.570;13.052;2023-01-16T03:19:56;6.00;99.90
23207;DHT22;11773;52.570;13.052;2023-01-16T03:22:38;6.20;99.90
23207;DHT22;11773;52.570;13.052;2023-01-16T03:25:39;6.20;99.90
23207;DHT22;11773;52.570;13.052;2023-01-16T03:28:31;6.20;99.90
23207;DHT22;11773;52.570;13.052;2023-01-16T03:31:26;6.20;99.90
23207;DHT22;11773;52.570;13.052;2023-01-16T03:34:18;6.20;99.90
23207;DHT22;11773;52.570;13.052;2023-01-16T03:36:53;6.30;99.90
23207;DHT22;11773;52.570;13.052;2023-01-16T03:39:28;6.00;99.90
23207;DHT22;11773;52.570;13.052;2023-01-16T03:42:04;5.90;99.90
23207;DHT22;11773;52.570;13.052;2023-01-16T03:44:41;6.10;99.90
23207;DHT22;11773;52.570;13.052;2023-01-16T03:47:26;6.00;99.90
23207;DHT22;11773;52.570;13.052;2023-01-16T03:49:59;6.00;99.90
23207;DHT22;11773;52.570;13.052;2023-01-16T03:52:38;6.00;99.90
23207;DHT22;11773;52.570;13.052;2023-01-16T03:55:23;5.90;99.90
23207;DHT22;11773;52.570;13.052;2023-01-16T03:58:05;5.90;99.90
23207;DHT22;11773;52.570;13.052;2023-01-16T04:03:43;5.90;99.90
23207;DHT22;11773;52.570;13.052;2023-01-16T04:09:10;5.90;99.90
23207;DHT22;11773;52.570;13.052;2023-01-16T04:11:42;5.90;99.90
23207;DHT22;11773;52.570;13.052;2023-01-16T04:14:14;5.80;99.90
23207;DHT22;11773;52.570;13.052;2023-01-16T04:16:46;5.80;99.90
23207;DHT22;11773;52.570;13.052;2023-01-16T04:19:16;5.90;99.90
23207;DHT22;11773;52.570;13.052;2023-01-16T04:21:47;6.00;99.90
23207;DHT22;11773;52.570;13.052;2023-01-16T04:24:17;5.90;99.90
23207;DHT22;11773;52.570;13.052;2023-01-16T04:26:46;6.00;99.90
23207;DHT22;11773;52.570;13.052;2023-01-16T04:29:18;5.90;99.90
23207;DHT22;11773;52.570;13.052;2023-01-16T04:31:48;5.90;99.90
23207;DHT22;11773;52.570;13.052;2023-01-16T04:34:17;5.90;99.90
23207;DHT22;11773;52.570;13.052;2023-01-16T04:36:47;5.90;99.90
23207;DHT22;11773;52.570;13.052;2023-01-16T04:39:16;5.80;99.90
23207;DHT22;11773;52.570;13.052;2023-01-16T04:41:46;5.90;99.90
23207;DHT22;11773;52.570;13.052;2023-01-16T04:44:17;5.80;99.90
23207;DHT22;11773;52.570;13.052;2023-01-16T04:46:47;5.80;99.90
23207;DHT22;11773;52.570;13.052;2023-01-16T04:49:16;5.80;99.90
23207;DHT22;11773;52.570;13.052;2023-01-16T04:51:47;5.80;99.90
23207;DHT22;11773;52.570;13.052;2023-01-16T04:54:17;6.00;99.90
23207;DHT22;11773;52.570;13.052;2023-01-16T04:56:48;5.90;99.90
23207;DHT22;11773;52.570;13.052;2023-01-16T04:59:17;5.90;99.90
23207;DHT22;11773;52.570;13.052;2023-01-16T05:01:47;5.90;99.90
23207;DHT22;11773;52.570;13.052;2023-01-16T05:04:17;5.80;99.90
23207;DHT22;11773;52.570;13.052;2023-01-16T05:06:47;5.90;99.90
23207;DHT22;11773;52.570;13.052;2023-01-16T05:09:17;6.00;99.90
23207;DHT22;11773;52.570;13.052;2023-01-16T05:11:46;6.00;99.90
23207;DHT22;11773;52.570;13.052;2023-01-16T05:14:16;6.00;99.90
23207;DHT22;11773;52.570;13.052;2023-01-16T05:16:45;5.90;99.90
23207;DHT22;11773;52.570;13.052;2023-01-16T05:19:15;5.90;99.90
23207;DHT22;11773;52.570;13.052;2023-01-16T05:21:44;5.80;99.90
23207;DHT22;11773;52.570;13.052;2023-01-16T05:24:14;5.80;99.90
23207;DHT22;11773;52.570;13.052;2023-01-16T05:26:43;5.90;99.90
23207;DHT22;11773;52.570;13.052;2023-01-16T05:29:13;6.10;99.90
23207;DHT22;11773;52.570;13.052;2023-01-16T05:31:42;6.00;99.90
23207;DHT22;11773;52.570;13.052;2023-01-16T05:34:12;6.10;99.90
23207;DHT22;11773;52.570;13.052;2023-01-16T05:36:41;6.10;99.90
23207;DHT22;11773;52.570;13.052;2023-01-16T05:39:11;5.90;99.90
23207;DHT22;11773;52.570;13.052;2023-01-16T05:41:40;5.90;99.90
23207;DHT22;11773;52.570;13.052;2023-01-16T05:44:10;5.80;99.90
23207;DHT22;11773;52.570;13.052;2023-01-16T05:46:39;6.10;99.90
23207;DHT22;11773;52.570;13.052;2023-01-16T05:49:09;5.90;99.90
23207;DHT22;11773;52.570;13.052;2023-01-16T05:51:38;5.70;99.90
23207;DHT22;11773;52.570;13.052;2023-01-16T05:54:10;5.80;99.90
23207;DHT22;11773;52.570;13.052;2023-01-16T05:56:39;5.80;99.90
23207;DHT22;11773;52.570;13.052;2023-01-16T05:59:10;6.00;99.90
23207;DHT22;11773;52.570;13.052;2023-01-16T06:01:39;5.80;99.90
23207;DHT22;11773;52.570;13.052;2023-01-16T06:04:09;5.80;99.90
23207;DHT22;11773;52.570;13.052;2023-01-16T06:06:38;6.10;99.90
23207;DHT22;11773;52.570;13.052;2023-01-16T06:09:08;5.80;99.90
23207;DHT22;11773;52.570;13.052;2023-01-16T06:11:37;5.90;99.90
23207;DHT22;11773;52.570;13.052;2023-01-16T06:14:07;5.80;99.90
23207;DHT22;11773;52.570;13.052;2023-01-16T06:16:36;5.80;99.90
23207;DHT22;11773;52.570;13.052;2023-01-16T06:19:06;5.90;99.90
23207;DHT22;11773;52.570;13.052;2023-01-16T06:21:35;5.80;99.90
23207;DHT22;11773;52.570;13.052;2023-01-16T06:24:05;5.80;99.90
23207;DHT22;11773;52.570;13.052;2023-01-16T06:26:35;6.00;99.90
23207;DHT22;11773;52.570;13.052;2023-01-16T06:29:04;5.90;99.90
23207;DHT22;11773;52.570;13.052;2023-01-16T06:31:34;6.00;99.90
23207;DHT22;11773;52.570;13.052;2023-01-16T06:34:03;5.70;99.90
23207;DHT22;11773;52.570;13.052;2023-01-16T06:36:33;5.80;99.90
23207;DHT22;11773;52.570;13.052;2023-01-16T06:39:02;5.80;99.90
23207;DHT22;11773;52.570;13.052;2023-01-16T06:41:32;5.80;99.90
23207;DHT22;11773;52.570;13.052;2023-01-16T06:44:01;5.80;99.90
23207;DHT22;11773;52.570;13.052;2023-01-16T06:46:31;5.90;99.90
23207;DHT22;11773;52.570;13.052;2023-01-16T06:49:01;5.90;99.90
23207;DHT22;11773;52.570;13.052;2023-01-16T06:51:30;6.00;99.90
23207;DHT22;11773;52.570;13.052;2023-01-16T06:54:00;5.80;99.90
23207;DHT22;11773;52.570;13.052;2023-01-16T06:56:30;5.80;99.90
23207;DHT22;11773;52.570;13.052;2023-01-16T06:59:00;5.90;99.90
23207;DHT22;11773;52.570;13.052;2023-01-16T07:01:29;5.90;99.90
23207;DHT22;11773;52.570;13.052;2023-01-16T07:03:59;6.00;99.90
23207;DHT22;11773;52.570;13.052;2023-01-16T07:06:28;6.00;99.90
23207;DHT22;11773;52.570;13.052;2023-01-16T07:08:58;6.00;99.90
23207;DHT22;11773;52.570;13.052;2023-01-16T07:11:27;6.00;99.90
23207;DHT22;11773;52.570;13.052;2023-01-16T07:13:57;6.00;99.90
23207;DHT22;11773;52.570;13.052;2023-01-16T07:16:44;6.00;99.90
23207;DHT22;11773;52.570;13.052;2023-01-16T07:19:32;6.00;99.90
23207;DHT22;11773;52.570;13.052;2023-01-16T07:22:19;6.00;99.90
23207;DHT22;11773;52.570;13.052;2023-01-16T07:25:17;5.80;99.90
23207;DHT22;11773;52.570;13.052;2023-01-16T07:27:49;5.80;99.90
23207;DHT22;11773;52.570;13.052;2023-01-16T07:30:22;5.80;99.90
23207;DHT22;11773;52.570;13.052;2023-01-16T07:32:52;6.00;99.90
23207;DHT22;11773;52.570;13.052;2023-01-16T07:35:22;5.90;99.90
23207;DHT22;11773;52.570;13.052;2023-01-16T07:37:51;5.90;99.90
23207;DHT22;11773;52.570;13.052;2023-01-16T07:40:23;5.90;99.90
23207;DHT22;11773;52.570;13.052;2023-01-16T07:42:52;5.80;99.90
23207;DHT22;11773;52.570;13.052;2023-01-16T07:45:22;5.80;99.90
23207;DHT22;11773;52.570;13.052;2023-01-16T07:47:52;5.80;99.90
23207;DHT22;11773;52.570;13.052;2023-01-16T07:50:21;5.80;99.90
23207;DHT22;11773;52.570;13.052;2023-01-16T07:52:51;5.60;99.90
23207;DHT22;11773;52.570;13.052;2023-01-16T07:55:21;5.70;99.90
23207;DHT22;11773;52.570;13.052;2023-01-16T07:57:50;5.80;99.90
23207;DHT22;11773;52.570;13.052;2023-01-16T08:00:20;5.80;99.90
23207;DHT22;11773;52.570;13.052;2023-01-16T08:02:49;5.70;99.90
23207;DHT22;11773;52.570;13.052;2023-01-16T08:05:19;5.70;99.90
23207;DHT22;11773;52.570;13.052;2023-01-16T08:07:48;5.80;99.90
23207;DHT22;11773;52.570;13.052;2023-01-16T08:10:18;5.80;99.90
23207;DHT22;11773;52.570;13.052;2023-01-16T08:12:47;5.70;99.90
23207;DHT22;11773;52.570;13.052;2023-01-16T08:15:17;5.70;99.90
23207;DHT22;11773;52.570;13.052;2023-01-16T08:17:46;5.80;99.90
23207;DHT22;11773;52.570;13.052;2023-01-16T08:20:16;5.80;99.90
23207;DHT22;11773;52.570;13.052;2023-01-16T08:22:47;5.70;99.90
23207;DHT22;11773;52.570;13.052;2023-01-16T08:25:23;5.90;99.90
23207;DHT22;11773;52.570;13.052;2023-01-16T08:27:53;5.80;99.90
23207;DHT22;11773;52.570;13.052;2023-01-16T08:30:22;5.80;99.90
23207;DHT22;11773;52.570;13.052;2023-01-16T08:32:59;5.90;99.90
23207;DHT22;11773;52.570;13.052;2023-01-16T08:35:29;6.00;99.90
23207;DHT22;11773;52.570;13.052;2023-01-16T08:37:59;6.00;99.90
23207;DHT22;11773;52.570;13.052;2023-01-16T08:40:28;6.00;99.90
23207;DHT22;11773;52.570;13.052;2023-01-16T08:42:58;6.00;99.90
23207;DHT22;11773;52.570;13.052;2023-01-16T08:45:45;6.10;99.90
23207;DHT22;11773;52.570;13.052;2023-01-16T08:48:32;6.00;99.90
23207;DHT22;11773;52.570;13.052;2023-01-16T08:51:20;6.10;99.90
23207;DHT22;11773;52.570;13.052;2023-01-16T08:53:52;6.10;99.90
23207;DHT22;11773;52.570;13.052;2023-01-16T08:56:22;6.10;99.90
23207;DHT22;11773;52.570;13.052;2023-01-16T08:58:52;6.20;99.90
23207;DHT22;11773;52.570;13.052;2023-01-16T09:01:22;6.20;99.90
23207;DHT22;11773;52.570;13.052;2023-01-16T09:03:52;6.30;99.90
23207;DHT22;11773;52.570;13.052;2023-01-16T09:06:21;6.40;99.90
23207;DHT22;11773;52.570;13.052;2023-01-16T09:08:52;6.30;99.90
23207;DHT22;11773;52.570;13.052;2023-01-16T09:11:21;6.30;99.90
23207;DHT22;11773;52.570;13.052;2023-01-16T09:14:08;6.50;99.90
23207;DHT22;11773;52.570;13.052;2023-01-16T09:16:40;6.40;99.90
23207;DHT22;11773;52.570;13.052;2023-01-16T09:19:10;6.40;99.90
23207;DHT22;11773;52.570;13.052;2023-01-16T09:21:39;6.50;99.90
23207;DHT22;11773;52.570;13.052;2023-01-16T09:24:09;6.40;99.90
23207;DHT22;11773;52.570;13.052;2023-01-16T09:26:38;6.40;99.90
23207;DHT22;11773;52.570;13.052;2023-01-16T09:29:07;6.50;99.90
23207;DHT22;11773;52.570;13.052;2023-01-16T09:31:37;6.50;99.90
23207;DHT22;11773;52.570;13.052;2023-01-16T09:34:06;6.60;99.90
23207;DHT22;11773;52.570;13.052;2023-01-16T09:36:36;6.40;99.90
23207;DHT22;11773;52.570;13.052;2023-01-16T09:39:05;6.50;99.90
23207;DHT22;11773;52.570;13.052;2023-01-16T09:41:40;6.60;99.90
23207;DHT22;11773;52.570;13.052;2023-01-16T09:44:27;6.60;99.90
23207;DHT22;11773;52.570;13.052;2023-01-16T09:46:58;6.70;99.90
23207;DHT22;11773;52.570;13.052;2023-01-16T09:49:32;6.70;99.90
23207;DHT22;11773;52.570;13.052;2023-01-16T09:52:06;6.70;99.90
23207;DHT22;11773;52.570;13.052;2023-01-16T09:54:57;6.70;99.90
23207;DHT22;11773;52.570;13.052;2023-01-16T09:57:47;6.70;99.90
23207;DHT22;11773;52.570;13.052;2023-01-16T10:00:36;6.70;99.90
23207;DHT22;11773;52.570;13.052;2023-01-16T10:03:08;6.80;99.90
23207;DHT22;11773;52.570;13.052;2023-01-16T10:05:54;6.80;99.90
23207;DHT22;11773;52.570;13.052;2023-01-16T10:08:36;6.80;99.90
23207;DHT22;11773;52.570;13.052;2023-01-16T10:14:02;6.80;99.90
23207;DHT22;11773;52.570;13.052;2023-01-16T10:16:58;6.90;99.90
23207;DHT22;11773;52.570;13.052;2023-01-16T10:19:46;6.90;99.90
23207;DHT22;11773;52.570;13.052;2023-01-16T10:22:44;6.80;99.90
23207;DHT22;11773;52.570;13.052;2023-01-16T10:25:22;6.90;99.90
23207;DHT22;11773;52.570;13.052;2023-01-16T10:28:04;6.90;99.90
23207;DHT22;11773;52.570;13.052;2023-01-16T10:30:49;6.90;99.90
23207;DHT22;11773;52.570;13.052;2023-01-16T10:33:27;7.00;99.90
23207;DHT22;11773;52.570;13.052;2023-01-16T10:36:00;7.00;99.90
23207;DHT22;11773;52.570;13.052;2023-01-16T10:38:51;7.10;99.90
23207;DHT22;11773;52.570;13.052;2023-01-16T10:41:21;7.20;99.90
23207;DHT22;11773;52.570;13.052;2023-01-16T10:44:31;7.20;99.90
23207;DHT22;11773;52.570;13.052;2023-01-16T10:47:30;7.10;99.90
23207;DHT22;11773;52.570;13.052;2023-01-16T10:50:22;7.20;99.90
23207;DHT22;11773;52.570;13.052;2023-01-16T10:52:55;7.30;99.90
23207;DHT22;11773;52.570;13.052;2023-01-16T10:55:24;7.30;99.90
23207;DHT22;11773;52.570;13.052;2023-01-16T10:57:59;7.30;99.90
23207;DHT22;11773;52.570;13.052;2023-01-16T11:00:37;7.20;99.90
23207;DHT22;11773;52.570;13.052;2023-01-16T11:03:27;7.30;99.90
23207;DHT22;11773;52.570;13.052;2023-01-16T11:06:14;7.40;99.90
23207;DHT22;11773;52.570;13.052;2023-01-16T11:08:59;7.40;99.90
23207;DHT22;11773;52.570;13.052;2023-01-16T11:11:34;7.40;99.90
23207;DHT22;11773;52.570;13.052;2023-01-16T11:14:32;7.50;99.90
23207;DHT22;11773;52.570;13.052;2023-01-16T11:17:36;7.50;99.90
23207;DHT22;11773;52.570;13.052;2023-01-16T11:20:29;7.60;99.90
23207;DHT22;11773;52.570;13.052;2023-01-16T11:25:43;7.60;99.90
23207;DHT22;11773;52.570;13.052;2023-01-16T11:28:23;7.50;99.90
23207;DHT22;11773;52.570;13.052;2023-01-16T11:30:57;7.60;99.90
23207;DHT22;11773;52.570;13.052;2023-01-16T11:33:32;7.60;99.90
23207;DHT22;11773;52.570;13.052;2023-01-16T11:36:05;7.60;99.90
23207;DHT22;11773;52.570;13.052;2023-01-16T11:38:37;7.70;99.90
23207;DHT22;11773;52.570;13.052;2023-01-16T11:41:10;7.60;99.90
23207;DHT22;11773;52.570;13.052;2023-01-16T11:43:39;7.70;99.90
23207;DHT22;11773;52.570;13.052;2023-01-16T11:46:41;7.80;99.90
23207;DHT22;11773;52.570;13.052;2023-01-16T11:49:16;7.90;99.90
23207;DHT22;11773;52.570;13.052;2023-01-16T11:51:52;7.80;99.90
23207;DHT22;11773;52.570;13.052;2023-01-16T11:54:27;7.80;99.90
23207;DHT22;11773;52.570;13.052;2023-01-16T11:57:05;7.90;99.90
23207;DHT22;11773;52.570;13.052;2023-01-16T12:00:03;8.00;99.90
23207;DHT22;11773;52.570;13.052;2023-01-16T12:03:03;7.80;99.90
23207;DHT22;11773;52.570;13.052;2023-01-16T12:11:43;7.90;99.90
23207;DHT22;11773;52.570;13.052;2023-01-16T12:14:21;7.90;99.90
23207;DHT22;11773;52.570;13.052;2023-01-16T12:20:26;7.90;99.90
23207;DHT22;11773;52.570;13.052;2023-01-16T12:23:21;8.00;99.90
23207;DHT22;11773;52.570;13.052;2023-01-16T12:29:17;8.10;99.90
23207;DHT22;11773;52.570;13.052;2023-01-16T12:31:57;8.00;99.90
23207;DHT22;11773;52.570;13.052;2023-01-16T12:34:32;8.10;99.90
23207;DHT22;11773;52.570;13.052;2023-01-16T12:40:19;8.00;99.90
23207;DHT22;11773;52.570;13.052;2023-01-16T12:43:10;8.00;99.90
23207;DHT22;11773;52.570;13.052;2023-01-16T12:46:02;8.10;99.90
23207;DHT22;11773;52.570;13.052;2023-01-16T12:49:02;8.00;99.90
23207;DHT22;11773;52.570;13.052;2023-01-16T12:54:39;8.10;99.90
23207;DHT22;11773;52.570;13.052;2023-01-16T12:57:30;8.10;99.90
23207;DHT22;11773;52.570;13.052;2023-01-16T13:00:19;8.20;99.90
23207;DHT22;11773;52.570;13.052;2023-01-16T13:03:00;8.20;99.90
23207;DHT22;11773;52.570;13.052;2023-01-16T13:05:33;8.20;99.90
23207;DHT22;11773;52.570;13.052;2023-01-16T13:11:00;8.20;99.90
23207;DHT22;11773;52.570;13.052;2023-01-16T13:13:57;8.30;99.90
23207;DHT22;11773;52.570;13.052;2023-01-16T13:16:37;8.20;99.90
23207;DHT22;11773;52.570;13.052;2023-01-16T13:19:20;8.10;99.90
23207;DHT22;11773;52.570;13.052;2023-01-16T13:22:11;8.10;99.90
23207;DHT22;11773;52.570;13.052;2023-01-16T13:24:49;8.20;99.90
23207;DHT22;11773;52.570;13.052;2023-01-16T13:27:24;8.10;99.90
23207;DHT22;11773;52.570;13.052;2023-01-16T13:29:57;8.10;99.90
23207;DHT22;11773;52.570;13.052;2023-01-16T13:32:40;8.10;99.90
23207;DHT22;11773;52.570;13.052;2023-01-16T13:35:19;8.10;99.90
23207;DHT22;11773;52.570;13.052;2023-01-16T13:41:21;8.10;99.90
23207;DHT22;11773;52.570;13.052;2023-01-16T13:44:00;8.10;99.90
23207;DHT22;11773;52.570;13.052;2023-01-16T13:47:08;8.10;99.90
23207;DHT22;11773;52.570;13.052;2023-01-16T13:49:38;8.10;99.90
23207;DHT22;11773;52.570;13.052;2023-01-16T13:52:18;8.10;99.90
23207;DHT22;11773;52.570;13.052;2023-01-16T13:54:48;8.10;99.90
23207;DHT22;11773;52.570;13.052;2023-01-16T13:57:22;8.10;99.90
23207;DHT22;11773;52.570;13.052;2023-01-16T13:59:59;8.10;99.90
23207;DHT22;11773;52.570;13.052;2023-01-16T14:03:00;8.10;99.90
23207;DHT22;11773;52.570;13.052;2023-01-16T14:05:21;8.10;99.90
23207;DHT22;11773;52.570;13.052;2023-01-16T14:08:28;8.00;99.90
23207;DHT22;11773;52.570;13.052;2023-01-16T14:14:46;8.00;99.90
23207;DHT22;11773;52.570;13.052;2023-01-16T14:23:34;8.00;99.90
23207;DHT22;11773;52.570;13.052;2023-01-16T14:26:37;8.00;99.90
23207;DHT22;11773;52.570;13.052;2023-01-16T14:29:27;8.00;99.90
23207;DHT22;11773;52.570;13.052;2023-01-16T14:32:27;8.00;99.90
23207;DHT22;11773;52.570;13.052;2023-01-16T14:35:15;7.90;99.90
23207;DHT22;11773;52.570;13.052;2023-01-16T14:38:04;7.90;99.90
23207;DHT22;11773;52.570;13.052;2023-01-16T14:40:37;7.80;99.90
23207;DHT22;11773;52.570;13.052;2023-01-16T14:43:33;7.80;99.90
23207;DHT22;11773;52.570;13.052;2023-01-16T14:46:27;7.90;99.90
23207;DHT22;11773;52.570;13.052;2023-01-16T14:49:40;7.90;99.90
23207;DHT22;11773;52.570;13.052;2023-01-16T14:55:52;7.70;99.90
23207;DHT22;11773;52.570;13.052;2023-01-16T14:59:07;7.70;99.90
23207;DHT22;11773;52.570;13.052;2023-01-16T15:02:02;7.70;99.90
23207;DHT22;11773;52.570;13.052;2023-01-16T15:07:51;7.60;99.90
23207;DHT22;11773;52.570;13.052;2023-01-16T15:10:34;7.60;99.90
23207;DHT22;11773;52.570;13.052;2023-01-16T15:13:25;7.60;99.90
23207;DHT22;11773;52.570;13.052;2023-01-16T15:16:01;7.50;99.90
23207;DHT22;11773;52.570;13.052;2023-01-16T15:18:39;7.50;99.90
23207;DHT22;11773;52.570;13.052;2023-01-16T15:21:24;7.50;99.90
23207;DHT22;11773;52.570;13.052;2023-01-16T15:24:15;7.50;99.90
23207;DHT22;11773;52.570;13.052;2023-01-16T15:27:06;7.40;99.90
23207;DHT22;11773;52.570;13.052;2023-01-16T15:30:06;7.40;99.90
23207;DHT22;11773;52.570;13.052;2023-01-16T15:33:00;7.50;99.90
23207;DHT22;11773;52.570;13.052;2023-01-16T15:35:33;7.50;99.90
23207;DHT22;11773;52.570;13.052;2023-01-16T15:38:05;7.50;99.90
23207;DHT22;11773;52.570;13.052;2023-01-16T15:40:36;7.40;99.90
23207;DHT22;11773;52.570;13.052;2023-01-16T15:43:08;7.40;99.90
23207;DHT22;11773;52.570;13.052;2023-01-16T15:49:19;7.30;99.90
23207;DHT22;11773;52.570;13.052;2023-01-16T15:51:58;7.30;99.90
23207;DHT22;11773;52.570;13.052;2023-01-16T15:54:28;7.30;99.90
23207;DHT22;11773;52.570;13.052;2023-01-16T15:56:59;7.30;99.90
23207;DHT22;11773;52.570;13.052;2023-01-16T15:59:32;7.30;99.90
23207;DHT22;11773;52.570;13.052;2023-01-16T16:02:22;7.20;99.90
23207;DHT22;11773;52.570;13.052;2023-01-16T16:04:57;7.20;99.90
23207;DHT22;11773;52.570;13.052;2023-01-16T16:07:28;7.20;99.90
23207;DHT22;11773;52.570;13.052;2023-01-16T16:09:59;7.10;99.90
23207;DHT22;11773;52.570;13.052;2023-01-16T16:12:30;7.10;99.90
23207;DHT22;11773;52.570;13.052;2023-01-16T16:15:17;7.20;99.90
23207;DHT22;11773;52.570;13.052;2023-01-16T16:18:16;7.10;99.90
23207;DHT22;11773;52.570;13.052;2023-01-16T16:20:49;7.10;99.90
23207;DHT22;11773;52.570;13.052;2023-01-16T16:23:24;7.00;99.90
23207;DHT22;11773;52.570;13.052;2023-01-16T16:25:58;7.00;99.90
23207;DHT22;11773;52.570;13.052;2023-01-16T16:28:34;7.00;99.90
23207;DHT22;11773;52.570;13.052;2023-01-16T16:31:15;6.90;99.90
23207;DHT22;11773;52.570;13.052;2023-01-16T16:33:59;6.90;99.90
23207;DHT22;11773;52.570;13.052;2023-01-16T16:36:26;6.90;99.90
23207;DHT22;11773;52.570;13.052;2023-01-16T16:38:57;6.90;99.90
23207;DHT22;11773;52.570;13.052;2023-01-16T16:44:36;6.90;99.90
23207;DHT22;11773;52.570;13.052;2023-01-16T16:47:24;6.90;99.90
23207;DHT22;11773;52.570;13.052;2023-01-16T16:49:56;6.90;99.90
23207;DHT22;11773;52.570;13.052;2023-01-16T16:52:36;6.80;99.90
23207;DHT22;11773;52.570;13.052;2023-01-16T16:55:31;6.70;99.90
23207;DHT22;11773;52.570;13.052;2023-01-16T16:58:11;6.70;99.90
23207;DHT22;11773;52.570;13.052;2023-01-16T17:00:52;6.60;99.90
23207;DHT22;11773;52.570;13.052;2023-01-16T17:03:29;6.60;99.90
23207;DHT22;11773;52.570;13.052;2023-01-16T17:05:56;6.60;99.90
23207;DHT22;11773;52.570;13.052;2023-01-16T17:08:27;6.60;99.90
23207;DHT22;11773;52.570;13.052;2023-01-16T17:10:57;6.60;99.90
23207;DHT22;11773;52.570;13.052;2023-01-16T17:13:27;6.60;99.90
23207;DHT22;11773;52.570;13.052;2023-01-16T17:15:57;6.70;99.90
23207;DHT22;11773;52.570;13.052;2023-01-16T17:18:28;6.60;99.90
23207;DHT22;11773;52.570;13.052;2023-01-16T17:20:57;6.70;99.90
23207;DHT22;11773;52.570;13.052;2023-01-16T17:23:27;6.60;99.90
23207;DHT22;11773;52.570;13.052;2023-01-16T17:25:56;6.60;99.90
23207;DHT22;11773;52.570;13.052;2023-01-16T17:28:26;6.60;99.90
23207;DHT22;11773;52.570;13.052;2023-01-16T17:30:55;6.60;99.90
23207;DHT22;11773;52.570;13.052;2023-01-16T17:33:25;6.70;99.90
23207;DHT22;11773;52.570;13.052;2023-01-16T17:35:56;6.60;99.90
23207;DHT22;11773;52.570;13.052;2023-01-16T17:38:39;6.60;99.90
23207;DHT22;11773;52.570;13.052;2023-01-16T17:41:21;6.70;99.90
23207;DHT22;11773;52.570;13.052;2023-01-16T17:43:54;6.70;99.90
23207;DHT22;11773;52.570;13.052;2023-01-16T17:46:42;6.60;99.90
23207;DHT22;11773;52.570;13.052;2023-01-16T17:49:11;6.60;99.90
23207;DHT22;11773;52.570;13.052;2023-01-16T17:51:41;6.60;99.90
23207;DHT22;11773;52.570;13.052;2023-01-16T17:54:11;6.60;99.90
23207;DHT22;11773;52.570;13.052;2023-01-16T17:56:42;6.70;99.90